Time;durP1;ratioP1;P1;durP2;ratioP2;P2;SDS_P1;SDS_P2;PMS_P1;PMS_P2;Temp;Humidity;BMP_temperature;BMP_pressure;BME280_temperature;BME280_humidity;BME280_pressure;Samples;Min_cycle;Max_cycle;Signal;HPM_P1;HPM_P2
2021/10/15 00:00:13;;;;;;;19.90;10.50;;;;;;;-145.18;0.00;102943.50;5055597;28;20252;-68
2021/10/15 00:02:38;;;;;;;20.77;10.87;;;;;;;-145.18;0.00;102943.50;5050876;28;20454;-68
2021/10/15 00:05:06;;;;;;;17.17;9.30;;;;;;;-145.18;0.00;102943.50;5053562;28;20032;-68
2021/10/15 00:07:32;;;;;;;21.43;11.00;;;;;;;-145.18;0.00;102943.50;5044351;28;20040;-68
2021/10/15 00:09:57;;;;;;;22.43;10.33;;;;;;;-145.18;0.00;102943.50;5053847;28;20032;-69
2021/10/15 00:12:23;;;;;;;20.47;10.30;;;;;;;-145.18;0.00;102943.50;5064314;28;20032;-68
2021/10/15 00:14:48;;;;;;;19.77;10.60;;;;;;;-145.18;0.00;102943.50;5051410;28;20500;-69
2021/10/15 00:17:14;;;;;;;22.13;9.33;;;;;;;-145.18;0.00;102943.50;5059384;28;20044;-69
2021/10/15 00:19:39;;;;;;;19.87;10.17;;;;;;;-145.18;0.00;102943.50;5046229;28;20090;-68
2021/10/15 00:22:05;;;;;;;19.27;9.27;;;;;;;-145.18;0.00;102943.50;5052284;28;20048;-69
2021/10/15 00:24:30;;;;;;;20.37;9.33;;;;;;;-145.18;0.00;102943.50;5055765;28;20044;-68
2021/10/15 00:26:56;;;;;;;18.43;9.03;;;;;;;-145.18;0.00;102943.50;5059482;28;20047;-69
2021/10/15 00:29:21;;;;;;;17.10;9.10;;;;;;;-145.18;0.00;102943.50;5066234;28;20024;-68
2021/10/15 00:31:47;;;;;;;20.77;8.83;;;;;;;-145.18;0.00;102943.50;5058161;28;20112;-69
2021/10/15 00:34:12;;;;;;;17.70;8.37;;;;;;;-145.18;0.00;102943.50;5052746;28;20240;-68
2021/10/15 00:36:38;;;;;;;15.30;7.83;;;;;;;-145.18;0.00;102943.50;5052965;28;20440;-68
2021/10/15 00:39:03;;;;;;;19.47;8.37;;;;;;;-145.18;0.00;102943.50;5063587;28;20093;-68
2021/10/15 00:41:29;;;;;;;17.47;7.47;;;;;;;-145.18;0.00;102943.50;5055048;28;20273;-68
2021/10/15 00:44:09;;;;;;;23.00;8.83;;;;;;;-145.18;0.00;102943.50;5048790;28;20385;-69
2021/10/15 00:46:36;;;;;;;16.43;7.53;;;;;;;-145.18;0.00;102943.50;5056236;28;20021;-69
2021/10/15 00:49:03;;;;;;;15.53;7.37;;;;;;;-145.18;0.00;102943.50;5046830;28;20016;-69
2021/10/15 00:51:33;;;;;;;15.00;7.57;;;;;;;-145.18;0.00;102943.50;5073993;28;20028;-69
2021/10/15 00:53:59;;;;;;;15.23;7.50;;;;;;;-145.18;0.00;102943.50;5054455;28;20616;-68
2021/10/15 00:56:27;;;;;;;18.13;8.20;;;;;;;-145.18;0.00;102943.50;5055835;28;20052;-69
2021/10/15 00:58:52;;;;;;;16.37;7.23;;;;;;;-145.18;0.00;102943.50;5054202;28;20123;-69
2021/10/15 01:01:18;;;;;;;16.60;7.50;;;;;;;-145.18;0.00;102943.50;5073073;28;20070;-69
2021/10/15 01:03:43;;;;;;;15.90;7.40;;;;;;;-145.18;0.00;102943.50;5071347;22;20055;-68
2021/10/15 01:06:09;;;;;;;14.80;6.43;;;;;;;-145.18;0.00;102943.50;5074385;28;20067;-68
2021/10/15 01:08:42;;;;;;;18.13;7.20;;;;;;;-145.18;0.00;102943.50;5073649;28;20027;-68
2021/10/15 01:11:08;;;;;;;15.23;7.37;;;;;;;-145.18;0.00;102943.50;5074880;28;20384;-68
2021/10/15 01:13:34;;;;;;;16.30;7.10;;;;;;;-145.18;0.00;102943.50;5085262;28;20024;-68
2021/10/15 01:16:04;;;;;;;12.60;6.17;;;;;;;-145.18;0.00;102943.50;5077486;28;20089;-68
2021/10/15 01:18:30;;;;;;;18.40;7.47;;;;;;;-145.18;0.00;102943.50;5081804;28;20544;-68
2021/10/15 01:20:55;;;;;;;14.77;6.70;;;;;;;-145.18;0.00;102943.50;5081034;28;20123;-68
2021/10/15 01:23:21;;;;;;;13.73;6.13;;;;;;;-145.18;0.00;102943.50;5083118;28;20406;-68
2021/10/15 01:25:46;;;;;;;15.70;7.47;;;;;;;-145.18;0.00;102943.50;5076960;28;20507;-68
2021/10/15 01:28:12;;;;;;;14.57;6.13;;;;;;;-145.18;0.00;102943.50;5080006;28;20217;-68
2021/10/15 01:30:37;;;;;;;18.03;6.93;;;;;;;-145.18;0.00;102943.50;5069317;28;20036;-68
2021/10/15 01:33:03;;;;;;;13.23;6.77;;;;;;;-145.18;0.00;102943.50;5077324;28;20035;-69
2021/10/15 01:35:28;;;;;;;13.20;6.30;;;;;;;-145.18;0.00;102943.50;5079402;28;20081;-68
2021/10/15 01:37:54;;;;;;;14.10;6.33;;;;;;;-145.18;0.00;102943.50;5077950;28;20071;-68
2021/10/15 01:40:19;;;;;;;12.90;6.03;;;;;;;-145.18;0.00;102943.50;5075077;28;20028;-68
2021/10/15 01:42:54;;;;;;;13.77;6.27;;;;;;;-145.18;0.00;102943.50;5081940;28;20032;-69
2021/10/15 01:45:23;;;;;;;14.67;6.00;;;;;;;-145.18;0.00;102943.50;5076975;28;20039;-68
2021/10/15 01:47:49;;;;;;;13.83;6.93;;;;;;;-145.18;0.00;102943.50;5069709;28;20036;-68
2021/10/15 01:50:15;;;;;;;12.57;6.33;;;;;;;-145.18;0.00;102943.50;5076217;28;20039;-68
2021/10/15 01:52:40;;;;;;;18.43;7.33;;;;;;;-145.18;0.00;102943.50;5077847;28;20495;-68
2021/10/15 01:55:07;;;;;;;14.50;6.47;;;;;;;-145.18;0.00;102943.50;5074083;28;20036;-68
2021/10/15 01:57:33;;;;;;;10.23;5.77;;;;;;;-145.18;0.00;102943.50;5066145;28;20277;-68
2021/10/15 01:59:59;;;;;;;13.43;6.53;;;;;;;-145.18;0.00;102943.50;5072030;28;20035;-68
2021/10/15 02:02:24;;;;;;;13.80;6.50;;;;;;;-145.18;0.00;102943.50;5076228;28;20101;-68
2021/10/15 02:04:49;;;;;;;13.93;6.33;;;;;;;-145.18;0.00;102943.50;5065251;28;20044;-68
2021/10/15 02:07:15;;;;;;;16.50;6.50;;;;;;;-145.18;0.00;102943.50;5048861;28;20464;-68
2021/10/15 02:09:40;;;;;;;15.23;6.97;;;;;;;-145.18;0.00;102943.50;5053446;28;20695;-68
2021/10/15 02:12:06;;;;;;;16.87;7.37;;;;;;;-145.18;0.00;102943.50;5049259;28;20029;-68
2021/10/15 02:14:32;;;;;;;11.63;5.80;;;;;;;-145.18;0.00;102943.50;5063855;28;20487;-68
2021/10/15 02:16:57;;;;;;;16.37;7.13;;;;;;;-145.18;0.00;102943.50;5070134;28;20048;-68
2021/10/15 02:19:23;;;;;;;16.67;7.00;;;;;;;-145.18;0.00;102943.50;5049255;28;20172;-68
2021/10/15 02:21:49;;;;;;;13.73;6.70;;;;;;;-145.18;0.00;102943.50;5054306;28;20249;-68
2021/10/15 02:24:14;;;;;;;13.40;6.87;;;;;;;-145.18;0.00;102943.50;5064325;28;20369;-68
2021/10/15 02:26:40;;;;;;;13.53;6.80;;;;;;;-145.18;0.00;102943.50;5052201;28;20485;-68
2021/10/15 02:29:05;;;;;;;15.77;6.93;;;;;;;-145.18;0.00;102943.50;5056901;28;20093;-68
2021/10/15 02:31:31;;;;;;;14.70;6.60;;;;;;;-145.18;0.00;102943.50;5050441;28;20485;-68
2021/10/15 02:33:57;;;;;;;15.20;7.27;;;;;;;-145.18;0.00;102943.50;5056116;28;20028;-68
2021/10/15 02:36:22;;;;;;;14.17;6.47;;;;;;;-145.18;0.00;102943.50;5056331;28;20067;-68
2021/10/15 02:38:48;;;;;;;11.87;6.17;;;;;;;-145.18;0.00;102943.50;5057440;28;20192;-68
2021/10/15 02:41:13;;;;;;;15.90;6.53;;;;;;;-145.18;0.00;102943.50;5067029;28;20028;-68
2021/10/15 02:43:39;;;;;;;12.60;6.03;;;;;;;-145.18;0.00;102943.50;5063159;28;20448;-68
2021/10/15 02:46:05;;;;;;;23.03;6.47;;;;;;;-145.18;0.00;102943.50;5076893;28;20119;-68
2021/10/15 02:48:30;;;;;;;14.27;6.10;;;;;;;-145.18;0.00;102943.50;5056147;28;20095;-68
2021/10/15 02:50:56;;;;;;;11.07;5.70;;;;;;;-145.18;0.00;102943.50;5060882;28;20025;-68
2021/10/15 02:53:21;;;;;;;12.93;6.47;;;;;;;-145.18;0.00;102943.50;5064769;28;20170;-68
2021/10/15 02:55:47;;;;;;;11.90;5.67;;;;;;;-145.18;0.00;102943.50;5049156;28;20050;-68
2021/10/15 02:58:12;;;;;;;13.07;5.93;;;;;;;-145.18;0.00;102943.50;5058559;28;20357;-68
2021/10/15 03:00:38;;;;;;;11.13;5.57;;;;;;;-145.18;0.00;102943.50;5046027;28;20029;-68
2021/10/15 03:03:03;;;;;;;13.93;6.13;;;;;;;-145.18;0.00;102943.50;5052300;28;20115;-68
2021/10/15 03:05:29;;;;;;;14.03;6.00;;;;;;;-145.18;0.00;102943.50;5043120;28;20057;-68
2021/10/15 03:07:54;;;;;;;13.03;6.37;;;;;;;-145.18;0.00;102943.50;5047968;28;20059;-68
2021/10/15 03:10:20;;;;;;;11.50;5.80;;;;;;;-145.18;0.00;102943.50;5068236;28;20059;-68
2021/10/15 03:12:45;;;;;;;13.20;6.20;;;;;;;-145.18;0.00;102943.50;5058257;28;20919;-68
2021/10/15 03:15:11;;;;;;;13.73;5.83;;;;;;;-145.18;0.00;102943.50;5047850;28;20503;-68
2021/10/15 03:17:37;;;;;;;9.33;5.20;;;;;;;-145.18;0.00;102943.50;5057461;28;20082;-68
2021/10/15 03:20:03;;;;;;;12.27;5.13;;;;;;;-145.18;0.00;102943.50;5066697;28;20039;-68
2021/10/15 03:22:29;;;;;;;12.87;5.80;;;;;;;-145.18;0.00;102943.50;5065328;28;20097;-68
2021/10/15 03:24:54;;;;;;;11.40;5.63;;;;;;;-145.18;0.00;102943.50;5063028;28;20025;-68
2021/10/15 03:27:20;;;;;;;11.50;4.63;;;;;;;-145.18;0.00;102943.50;5052470;28;20203;-68
2021/10/15 03:29:45;;;;;;;12.27;5.47;;;;;;;-145.18;0.00;102943.50;5053957;28;20505;-68
2021/10/15 03:32:11;;;;;;;11.03;5.37;;;;;;;-145.18;0.00;102943.50;5059974;28;20442;-68
2021/10/15 03:34:37;;;;;;;13.23;5.20;;;;;;;-145.18;0.00;102943.50;5052111;28;20181;-68
2021/10/15 03:37:02;;;;;;;10.43;4.93;;;;;;;-145.18;0.00;102943.50;5053843;28;20473;-69
2021/10/15 03:39:28;;;;;;;9.47;4.50;;;;;;;-145.18;0.00;102943.50;5048407;28;20110;-68
2021/10/15 03:41:53;;;;;;;11.33;5.10;;;;;;;-145.18;0.00;102943.50;5072169;28;20156;-68
2021/10/15 03:44:19;;;;;;;11.63;5.00;;;;;;;-145.18;0.00;102943.50;5046351;28;20550;-68
2021/10/15 03:46:44;;;;;;;12.80;5.17;;;;;;;-145.18;0.00;102943.50;5060304;28;20035;-68
2021/10/15 03:49:10;;;;;;;9.70;4.50;;;;;;;-145.18;0.00;102943.50;5063709;28;20016;-68
2021/10/15 03:51:35;;;;;;;13.00;4.90;;;;;;;-145.18;0.00;102943.50;5077114;28;20032;-68
2021/10/15 03:54:01;;;;;;;10.50;5.00;;;;;;;-145.18;0.00;102943.50;5054091;28;20540;-68
2021/10/15 03:56:26;;;;;;;15.27;4.57;;;;;;;-145.18;0.00;102943.50;5055243;28;20041;-68
2021/10/15 03:58:52;;;;;;;10.70;4.70;;;;;;;-145.18;0.00;102943.50;5046344;28;20033;-68
2021/10/15 04:01:17;;;;;;;9.30;4.33;;;;;;;-145.18;0.00;102943.50;5065428;28;20024;-68
2021/10/15 04:03:43;;;;;;;10.50;5.20;;;;;;;-145.18;0.00;102943.50;5063533;28;20044;-68
2021/10/15 04:06:09;;;;;;;8.93;3.70;;;;;;;-145.18;0.00;102943.50;5068148;28;20034;-69
2021/10/15 04:08:35;;;;;;;12.23;4.80;;;;;;;-145.18;0.00;102943.50;5050161;28;20155;-68
2021/10/15 04:11:01;;;;;;;9.07;4.10;;;;;;;-145.18;0.00;102943.50;5062551;28;20165;-68
2021/10/15 04:13:26;;;;;;;9.00;4.43;;;;;;;-145.18;0.00;102943.50;5052965;28;20571;-68
2021/10/15 04:15:52;;;;;;;10.73;4.70;;;;;;;-145.18;0.00;102943.50;5066942;28;20262;-68
2021/10/15 04:18:17;;;;;;;12.60;4.90;;;;;;;-145.18;0.00;102943.50;5072532;28;20038;-68
2021/10/15 04:20:43;;;;;;;8.57;4.07;;;;;;;-145.18;0.00;102943.50;5067607;28;20449;-68
2021/10/15 04:23:08;;;;;;;11.80;4.73;;;;;;;-145.18;0.00;102943.50;5045744;28;20029;-68
2021/10/15 04:25:34;;;;;;;11.90;4.53;;;;;;;-145.18;0.00;102943.50;5047972;28;20023;-68
2021/10/15 04:27:59;;;;;;;10.30;4.53;;;;;;;-145.18;0.00;102943.50;5049396;28;20028;-68
2021/10/15 04:30:25;;;;;;;8.73;4.43;;;;;;;-145.18;0.00;102943.50;5045724;28;20256;-68
2021/10/15 04:32:50;;;;;;;9.20;4.77;;;;;;;-145.18;0.00;102943.50;5060090;28;20102;-68
2021/10/15 04:35:16;;;;;;;9.93;4.70;;;;;;;-145.18;0.00;102943.50;5050836;28;20086;-68
2021/10/15 04:37:41;;;;;;;11.63;3.77;;;;;;;-145.18;0.00;102943.50;5051574;28;20662;-68
2021/10/15 04:40:08;;;;;;;9.90;4.90;;;;;;;-145.18;0.00;102943.50;5057780;28;20500;-68
2021/10/15 04:42:33;;;;;;;10.10;4.40;;;;;;;-145.18;0.00;102943.50;5051957;28;21371;-68
2021/10/15 04:44:59;;;;;;;13.50;4.47;;;;;;;-145.18;0.00;102943.50;5052951;28;20265;-69
2021/10/15 04:47:24;;;;;;;11.00;4.50;;;;;;;-145.18;0.00;102943.50;5056986;28;20028;-68
2021/10/15 04:49:50;;;;;;;8.80;5.33;;;;;;;-145.18;0.00;102943.50;5066100;28;20536;-68
2021/10/15 04:52:15;;;;;;;12.60;5.00;;;;;;;-145.18;0.00;102943.50;5052825;28;20028;-68
2021/10/15 04:54:41;;;;;;;10.67;4.67;;;;;;;-145.18;0.00;102943.50;5047243;28;20035;-68
2021/10/15 04:57:06;;;;;;;8.50;4.63;;;;;;;-145.18;0.00;102943.50;5077398;28;20028;-68
2021/10/15 04:59:32;;;;;;;9.17;4.63;;;;;;;-145.18;0.00;102943.50;5058401;28;20033;-68
2021/10/15 05:01:57;;;;;;;11.80;4.80;;;;;;;-145.18;0.00;102943.50;5058070;28;20025;-68
2021/10/15 05:04:26;;;;;;;11.33;4.50;;;;;;;-145.18;0.00;102943.50;5049001;28;20205;-68
2021/10/15 05:06:52;;;;;;;9.43;4.43;;;;;;;-145.18;0.00;102943.50;5077781;28;20024;-68
2021/10/15 05:09:36;;;;;;;9.77;4.70;;;;;;;-145.18;0.00;102943.50;5062275;28;20226;-68
2021/10/15 05:12:05;;;;;;;9.53;4.87;;;;;;;-145.18;0.00;102943.50;5042633;28;20427;-68
2021/10/15 05:14:32;;;;;;;9.33;4.67;;;;;;;-145.18;0.00;102943.50;5051250;28;20436;-69
2021/10/15 05:16:59;;;;;;;10.57;5.03;;;;;;;-145.18;0.00;102943.50;5059087;28;20107;-68
2021/10/15 05:19:25;;;;;;;10.17;4.70;;;;;;;-145.18;0.00;102943.50;5053753;28;20113;-68
2021/10/15 05:21:50;;;;;;;12.33;5.07;;;;;;;-145.18;0.00;102943.50;5075446;28;20095;-68
2021/10/15 05:24:16;;;;;;;11.23;4.50;;;;;;;-145.18;0.00;102943.50;5047191;28;20473;-68
2021/10/15 05:26:42;;;;;;;8.80;4.43;;;;;;;-145.18;0.00;102943.50;5078280;28;20035;-68
2021/10/15 05:29:07;;;;;;;10.17;5.60;;;;;;;-145.18;0.00;102943.50;5067015;28;20045;-68
2021/10/15 05:31:32;;;;;;;15.00;4.80;;;;;;;-145.18;0.00;102943.50;5058238;28;20055;-68
2021/10/15 05:33:58;;;;;;;10.57;4.80;;;;;;;-145.18;0.00;102943.50;5055519;28;20116;-68
2021/10/15 05:36:23;;;;;;;10.83;4.93;;;;;;;-145.18;0.00;102943.50;5078531;28;20024;-68
2021/10/15 05:38:49;;;;;;;9.43;4.67;;;;;;;-145.18;0.00;102943.50;5071446;28;20393;-68
2021/10/15 05:41:14;;;;;;;11.70;5.17;;;;;;;-145.18;0.00;102943.50;5058422;28;20519;-68
2021/10/15 05:43:40;;;;;;;12.03;5.03;;;;;;;-145.18;0.00;102943.50;5056256;28;20520;-68
2021/10/15 05:46:05;;;;;;;10.30;4.90;;;;;;;-145.18;0.00;102943.50;5078564;28;20024;-69
2021/10/15 05:48:31;;;;;;;7.40;3.97;;;;;;;-145.18;0.00;102943.50;5071110;28;20560;-68
2021/10/15 05:50:57;;;;;;;14.47;5.10;;;;;;;-145.18;0.00;102943.50;5069209;28;20020;-68
2021/10/15 05:53:24;;;;;;;9.50;5.20;;;;;;;-145.18;0.00;102943.50;5080775;28;20020;-68
2021/10/15 05:58:51;;;;;;;11.70;5.43;;;;;;;-145.18;0.00;102943.50;5006090;28;20124;-68
2021/10/15 06:01:23;;;;;;;11.65;5.35;;;;;;;-145.18;0.00;102943.50;5077949;28;20101;-68
2021/10/15 06:04:05;;;;;;;12.13;5.17;;;;;;;-145.18;0.00;102943.50;5062713;28;20139;-68
2021/10/15 06:08:24;;;;;;;14.73;5.07;;;;;;;-145.18;0.00;102943.50;5074920;28;20174;-68
2021/10/15 06:14:50;;;;;;;11.87;5.33;;;;;;;-145.18;0.00;102943.50;5064671;28;20086;-68
2021/10/15 06:17:17;;;;;;;12.37;5.03;;;;;;;-145.18;0.00;102943.50;5081780;28;20056;-68
2021/10/15 06:19:52;;;;;;;9.87;4.93;;;;;;;-145.18;0.00;102943.50;5065736;28;20029;-68
2021/10/15 06:22:28;;;;;;;11.60;5.60;;;;;;;-145.18;0.00;102943.50;5061501;28;20029;-68
2021/10/15 06:24:55;;;;;;;8.77;4.50;;;;;;;-145.18;0.00;102943.50;5069651;28;20113;-68
2021/10/15 06:27:23;;;;;;;14.10;5.30;;;;;;;-145.18;0.00;102943.50;5081339;28;20395;-68
2021/10/15 06:29:50;;;;;;;9.73;5.37;;;;;;;-145.18;0.00;102943.50;5067711;28;20718;-68
2021/10/15 06:32:24;;;;;;;10.83;5.10;;;;;;;-145.18;0.00;102943.50;5061386;28;20028;-68
2021/10/15 06:34:50;;;;;;;10.03;5.47;;;;;;;-145.18;0.00;102943.50;5073345;28;20028;-68
2021/10/15 06:37:19;;;;;;;9.73;5.40;;;;;;;-145.18;0.00;102943.50;5081146;28;20093;-68
2021/10/15 06:39:44;;;;;;;11.53;5.57;;;;;;;-145.18;0.00;102943.50;5057248;28;20037;-68
2021/10/15 06:42:10;;;;;;;12.13;5.80;;;;;;;-145.18;0.00;102943.50;5060743;28;20107;-68
2021/10/15 06:44:35;;;;;;;14.13;6.10;;;;;;;-145.18;0.00;102943.50;5050491;28;20397;-68
2021/10/15 06:47:01;;;;;;;14.03;6.20;;;;;;;-145.18;0.00;102943.50;5079537;28;20526;-68
2021/10/15 06:49:26;;;;;;;15.03;6.57;;;;;;;-145.18;0.00;102943.50;5064047;28;20059;-68
2021/10/15 06:51:52;;;;;;;10.77;5.30;;;;;;;-145.18;0.00;102943.50;5080358;28;20468;-68
2021/10/15 06:54:17;;;;;;;13.93;6.30;;;;;;;-145.18;0.00;102943.50;5064270;28;20040;-68
2021/10/15 06:56:43;;;;;;;13.67;6.23;;;;;;;-145.18;0.00;102943.50;5059967;28;20560;-69
2021/10/15 06:59:09;;;;;;;18.70;8.97;;;;;;;-145.18;0.00;102943.50;5053705;28;20290;-68
2021/10/15 07:01:34;;;;;;;14.27;7.50;;;;;;;-145.18;0.00;102943.50;5078372;28;20099;-68
2021/10/15 07:04:01;;;;;;;18.03;7.97;;;;;;;-145.18;0.00;102943.50;5057712;28;20064;-68
2021/10/15 07:06:27;;;;;;;14.10;6.13;;;;;;;-145.18;0.00;102943.50;5078653;28;20377;-69
2021/10/15 07:08:53;;;;;;;20.40;7.63;;;;;;;-145.18;0.00;102943.50;5070739;28;20448;-69
2021/10/15 07:11:18;;;;;;;19.47;8.17;;;;;;;-145.18;0.00;102943.50;5064623;28;20173;-69
2021/10/15 07:13:44;;;;;;;21.27;9.13;;;;;;;-145.18;0.00;102943.50;5073431;28;20033;-68
2021/10/15 07:16:12;;;;;;;21.13;8.83;;;;;;;-145.18;0.00;102943.50;5059300;28;20078;-69
2021/10/15 07:18:39;;;;;;;17.70;8.07;;;;;;;-145.18;0.00;102943.50;5057099;28;20144;-69
2021/10/15 07:21:05;;;;;;;8.90;3.37;;;;;;;-145.18;0.00;102943.50;5079488;28;20446;-69
2021/10/15 07:23:32;;;;;;;4.63;1.93;;;;;;;-145.18;0.00;102943.50;5071043;28;20070;-69
2021/10/15 07:25:58;;;;;;;3.93;1.50;;;;;;;-145.18;0.00;102943.50;5059692;28;20031;-69
2021/10/15 07:28:23;;;;;;;4.17;1.00;;;;;;;-145.18;0.00;102943.50;5058034;28;20111;-69
2021/10/15 07:30:50;;;;;;;1.90;0.60;;;;;;;-145.18;0.00;102943.50;5060201;28;20025;-69
2021/10/15 07:33:15;;;;;;;2.40;0.60;;;;;;;-145.18;0.00;102943.50;5060520;28;20032;-69
2021/10/15 07:35:41;;;;;;;1.17;0.70;;;;;;;-145.18;0.00;102943.50;5059874;28;20392;-69
2021/10/15 07:38:06;;;;;;;2.57;1.00;;;;;;;-145.18;0.00;102943.50;5059833;28;20427;-69
2021/10/15 07:40:32;;;;;;;1.20;0.43;;;;;;;-145.18;0.00;102943.50;5053423;28;20395;-69
2021/10/15 07:42:58;;;;;;;2.77;0.87;;;;;;;-145.18;0.00;102943.50;5080354;28;20476;-69
2021/10/15 07:45:26;;;;;;;1.40;0.70;;;;;;;-145.18;0.00;102943.50;5050657;28;20032;-69
2021/10/15 07:47:52;;;;;;;4.03;0.77;;;;;;;-145.18;0.00;102943.50;5059406;28;20028;-69
2021/10/15 07:50:17;;;;;;;5.07;0.80;;;;;;;-145.18;0.00;102943.50;5058936;28;20027;-69
2021/10/15 07:52:43;;;;;;;3.47;0.60;;;;;;;-145.18;0.00;102943.50;5080002;28;20024;-69
2021/10/15 07:55:09;;;;;;;2.70;0.60;;;;;;;-145.18;0.00;102943.50;5055640;28;20515;-69
2021/10/15 07:57:35;;;;;;;2.90;0.60;;;;;;;-145.18;0.00;102943.50;5059620;28;20032;-69
2021/10/15 08:00:08;;;;;;;2.90;0.87;;;;;;;-145.18;0.00;102943.50;5057850;28;20297;-69
2021/10/15 08:02:34;;;;;;;2.00;0.60;;;;;;;-145.18;0.00;102943.50;5075011;28;20020;-69
2021/10/15 08:04:59;;;;;;;5.33;0.90;;;;;;;-145.18;0.00;102943.50;5058903;28;20440;-69
2021/10/15 08:07:25;;;;;;;1.43;0.67;;;;;;;-145.18;0.00;102943.50;5059623;28;20587;-69
2021/10/15 08:09:51;;;;;;;2.37;0.70;;;;;;;-145.18;0.00;102943.50;5060378;28;20028;-70
2021/10/15 08:12:17;;;;;;;3.40;0.73;;;;;;;-145.18;0.00;102943.50;5059589;28;20058;-70
2021/10/15 08:14:42;;;;;;;3.53;0.70;;;;;;;-145.18;0.00;102943.50;5059835;28;20450;-70
2021/10/15 08:17:08;;;;;;;1.60;0.53;;;;;;;-145.18;0.00;102943.50;5073238;28;20452;-70
2021/10/15 08:19:34;;;;;;;3.10;1.07;;;;;;;-145.18;0.00;102943.50;5065093;28;20134;-70
2021/10/15 08:21:59;;;;;;;4.43;0.70;;;;;;;-145.18;0.00;102943.50;5059439;28;20365;-70
2021/10/15 08:24:25;;;;;;;4.83;0.57;;;;;;;-145.18;0.00;102943.50;5063258;28;20024;-70
2021/10/15 08:26:51;;;;;;;4.67;0.83;;;;;;;-145.18;0.00;102943.50;5079707;28;20460;-70
2021/10/15 08:29:17;;;;;;;4.63;0.60;;;;;;;-145.18;0.00;102943.50;5069220;28;20183;-69
2021/10/15 08:31:43;;;;;;;1.97;0.50;;;;;;;-145.18;0.00;102943.50;5059164;28;20099;-69
2021/10/15 08:34:09;;;;;;;1.53;0.50;;;;;;;-145.18;0.00;102943.50;5063712;28;20104;-70
2021/10/15 08:36:35;;;;;;;3.83;1.10;;;;;;;-145.18;0.00;102943.50;5079082;28;20054;-69
2021/10/15 08:39:00;;;;;;;7.60;1.10;;;;;;;-145.18;0.00;102943.50;5073048;28;20024;-70
2021/10/15 08:41:26;;;;;;;4.53;1.20;;;;;;;-145.18;0.00;102943.50;5058670;28;20097;-70
2021/10/15 08:43:57;;;;;;;2.13;0.80;;;;;;;-145.18;0.00;102943.50;5054520;28;20480;-70
2021/10/15 08:46:23;;;;;;;3.97;0.70;;;;;;;-145.18;0.00;102943.50;5064855;28;20326;-70
2021/10/15 08:48:48;;;;;;;3.93;0.60;;;;;;;-145.18;0.00;102943.50;5067417;28;20029;-70
2021/10/15 08:51:14;;;;;;;5.13;1.03;;;;;;;-145.18;0.00;102943.50;5072769;28;20024;-70
2021/10/15 08:53:55;;;;;;;6.80;0.70;;;;;;;-145.18;0.00;102943.50;5065659;28;20037;-70
2021/10/15 08:56:23;;;;;;;4.43;0.80;;;;;;;-145.18;0.00;102943.50;5055543;28;20033;-70
2021/10/15 08:58:56;;;;;;;3.00;0.80;;;;;;;-145.18;0.00;102943.50;5054311;28;20089;-70
2021/10/15 09:01:25;;;;;;;3.27;1.07;;;;;;;-145.18;0.00;102943.50;5073711;28;20028;-70
2021/10/15 09:03:58;;;;;;;2.73;1.13;;;;;;;-145.18;0.00;102943.50;5058606;28;20072;-70
2021/10/15 09:06:24;;;;;;;11.03;1.00;;;;;;;-145.18;0.00;102943.50;5077367;28;20055;-69
2021/10/15 09:08:53;;;;;;;2.33;0.70;;;;;;;-145.18;0.00;102943.50;5070434;28;20067;-69
2021/10/15 09:11:47;;;;;;;6.17;0.90;;;;;;;-145.18;0.00;102943.50;5063722;28;20020;-69
2021/10/15 09:14:25;;;;;;;2.57;0.80;;;;;;;-145.18;0.00;102943.50;5040843;28;20072;-69
2021/10/15 09:17:09;;;;;;;2.43;1.13;;;;;;;-145.18;0.00;102943.50;5078868;28;20446;-69
2021/10/15 09:19:55;;;;;;;2.30;0.63;;;;;;;-145.18;0.00;102943.50;5064632;28;20252;-69
2021/10/15 09:22:25;;;;;;;3.43;1.00;;;;;;;-145.18;0.00;102943.50;5057778;28;20075;-69
2021/10/15 09:25:08;;;;;;;2.00;0.80;;;;;;;-145.18;0.00;102943.50;5066933;28;20028;-69
2021/10/15 09:27:52;;;;;;;2.37;0.70;;;;;;;-145.18;0.00;102943.50;5074811;28;20017;-70
2021/10/15 09:30:21;;;;;;;3.30;0.70;;;;;;;-145.18;0.00;102943.50;5057366;28;20502;-70
2021/10/15 09:32:49;;;;;;;4.07;1.00;;;;;;;-145.18;0.00;102943.50;5062412;28;20569;-70
2021/10/15 09:35:18;;;;;;;4.23;0.70;;;;;;;-145.18;0.00;102943.50;5077682;28;20675;-69
2021/10/15 09:37:45;;;;;;;4.10;0.70;;;;;;;-145.18;0.00;102943.50;5082416;28;20038;-70
2021/10/15 09:40:16;;;;;;;4.83;0.90;;;;;;;-145.18;0.00;102943.50;5053461;28;20103;-70
2021/10/15 09:42:52;;;;;;;6.30;0.93;;;;;;;-145.18;0.00;102943.50;5061862;28;20296;-70
2021/10/15 09:45:20;;;;;;;4.33;1.10;;;;;;;-145.18;0.00;102943.50;5054072;28;20034;-69
2021/10/15 09:47:57;;;;;;;3.57;0.90;;;;;;;-145.18;0.00;102943.50;5082201;28;20115;-69
2021/10/15 09:50:25;;;;;;;4.93;1.17;;;;;;;-145.18;0.00;102943.50;5062857;28;20020;-70
2021/10/15 09:52:55;;;;;;;6.17;1.70;;;;;;;-145.18;0.00;102943.50;5081820;28;20093;-69
2021/10/15 09:55:38;;;;;;;3.33;0.80;;;;;;;-145.18;0.00;102943.50;5055768;28;20031;-69
2021/10/15 09:58:22;;;;;;;4.63;1.20;;;;;;;-145.18;0.00;102943.50;5064558;28;20031;-69
2021/10/15 10:00:50;;;;;;;5.87;1.30;;;;;;;-145.18;0.00;102943.50;5054258;28;20242;-69
2021/10/15 10:03:16;;;;;;;7.47;1.10;;;;;;;-145.18;0.00;102943.50;5061053;28;20036;-69
2021/10/15 10:05:41;;;;;;;4.53;0.87;;;;;;;-145.18;0.00;102943.50;5066364;28;20135;-69
2021/10/15 10:08:10;;;;;;;2.37;0.90;;;;;;;-145.18;0.00;102943.50;5082022;28;20027;-69
2021/10/15 10:10:37;;;;;;;3.87;1.00;;;;;;;-145.18;0.00;102943.50;5056424;28;20036;-69
2021/10/15 10:13:03;;;;;;;5.07;0.90;;;;;;;-145.18;0.00;102943.50;5066820;28;20035;-69
2021/10/15 10:15:31;;;;;;;4.47;1.10;;;;;;;-145.18;0.00;102943.50;5058021;28;20183;-69
2021/10/15 10:18:22;;;;;;;3.10;0.83;;;;;;;-145.18;0.00;102943.50;5061830;28;20039;-69
2021/10/15 10:21:03;;;;;;;2.17;0.80;;;;;;;-145.18;0.00;102943.50;5057729;28;20047;-69
2021/10/15 10:23:43;;;;;;;5.43;0.97;;;;;;;-145.18;0.00;102943.50;5059767;28;20499;-69
2021/10/15 10:26:11;;;;;;;3.87;0.73;;;;;;;-145.18;0.00;102943.50;5047944;28;20016;-69
2021/10/15 10:28:37;;;;;;;5.80;1.10;;;;;;;-145.18;0.00;102943.50;5059705;28;20035;-69
2021/10/15 10:31:19;;;;;;;4.30;0.80;;;;;;;-145.18;0.00;102943.50;5081863;28;20103;-69
2021/10/15 10:33:56;;;;;;;9.63;1.08;;;;;;;-145.18;0.00;102943.50;5076179;28;20055;-69
2021/10/15 10:36:21;;;;;;;6.67;1.20;;;;;;;-145.18;0.00;102943.50;5061445;28;20029;-69
2021/10/15 10:38:47;;;;;;;8.53;1.20;;;;;;;-145.18;0.00;102943.50;5063079;28;20039;-69
2021/10/15 10:41:17;;;;;;;4.03;0.80;;;;;;;-145.18;0.00;102943.50;5081451;28;20020;-69
2021/10/15 10:44:12;;;;;;;4.00;1.00;;;;;;;-145.18;0.00;102943.50;5073835;28;20120;-69
2021/10/15 10:46:38;;;;;;;5.73;1.03;;;;;;;-145.18;0.00;102943.50;5048496;28;20115;-69
2021/10/15 10:49:23;;;;;;;8.13;1.10;;;;;;;-145.18;0.00;102943.50;5057025;28;20115;-69
2021/10/15 10:52:12;;;;;;;6.40;1.33;;;;;;;-145.18;0.00;102943.50;5080034;28;20364;-69
2021/10/15 10:54:41;;;;;;;5.37;0.97;;;;;;;-145.18;0.00;102943.50;5061279;28;20184;-69
2021/10/15 10:57:28;;;;;;;7.20;0.97;;;;;;;-145.18;0.00;102943.50;5061143;28;20096;-69
2021/10/15 11:00:16;;;;;;;8.33;1.60;;;;;;;-145.18;0.00;102943.50;5059274;28;20085;-69
2021/10/15 11:02:46;;;;;;;3.90;1.30;;;;;;;-145.18;0.00;102943.50;5075524;28;20024;-69
2021/10/15 11:05:12;;;;;;;7.67;1.20;;;;;;;-145.18;0.00;102943.50;5063724;28;20273;-69
2021/10/15 11:07:37;;;;;;;11.10;1.97;;;;;;;-145.18;0.00;102943.50;5080605;28;20039;-69
2021/10/15 11:10:21;;;;;;;7.43;1.07;;;;;;;-145.18;0.00;102943.50;5061549;28;20036;-69
2021/10/15 11:12:58;;;;;;;6.33;1.30;;;;;;;-145.18;0.00;102943.50;5060708;28;20017;-69
2021/10/15 11:15:27;;;;;;;8.17;1.20;;;;;;;-145.18;0.00;102943.50;5069238;28;20673;-69
2021/10/15 11:17:53;;;;;;;11.57;1.03;;;;;;;-145.18;0.00;102943.50;5080345;28;20043;-69
2021/10/15 11:20:34;;;;;;;10.80;1.43;;;;;;;-145.18;0.00;102943.50;5060485;28;20032;-69
2021/10/15 11:23:08;;;;;;;8.00;1.10;;;;;;;-145.18;0.00;102943.50;5060180;28;20077;-69